createdAt,value
2022-08-03T00:02:25.514Z,100418.92
2022-08-03T00:04:57.357Z,100420.27
2022-08-03T00:07:28.783Z,100416.88
2022-08-03T00:10:00.543Z,100417.27
2022-08-03T00:12:32.068Z,100416.23
2022-08-03T00:15:03.488Z,100419.11
2022-08-03T00:17:52.650Z,100422.84
2022-08-03T00:20:25.671Z,100426.52
2022-08-03T00:22:57.440Z,100427.27
2022-08-03T00:25:30.020Z,100431.02
2022-08-03T00:28:01.740Z,100428.71
2022-08-03T00:30:33.483Z,100429.14
2022-08-03T00:33:05.392Z,100431.23
2022-08-03T00:35:50.461Z,100431.29
2022-08-03T00:38:22.993Z,100429.92
2022-08-03T00:40:54.536Z,100430.81
2022-08-03T00:43:28.481Z,100435.44
2022-08-03T00:45:59.803Z,100433.38
2022-08-03T00:48:33.707Z,100432.86
2022-08-03T00:51:06.289Z,100431.98
2022-08-03T00:53:38.662Z,100433.63
2022-08-03T00:56:11.183Z,100431.57
2022-08-03T00:58:43.318Z,100434.76
2022-08-03T01:01:15.657Z,100436.13
2022-08-03T01:03:47.821Z,100440.14
2022-08-03T01:06:33.935Z,100433.46
2022-08-03T01:09:11.278Z,100430.55
2022-08-03T01:12:00.910Z,100427.54
2022-08-03T01:14:40.339Z,100424.12
2022-08-03T01:17:18.490Z,100423.02
2022-08-03T01:20:01.876Z,100425.40
2022-08-03T01:22:52.726Z,100427.80
2022-08-03T01:25:36.750Z,100427.92
2022-08-03T01:28:36.074Z,100425.65
2022-08-03T01:31:14.164Z,100425.95
2022-08-03T01:33:51.419Z,100425.33
2022-08-03T01:36:31.970Z,100423.99
2022-08-03T01:39:09.825Z,100426.84
2022-08-03T01:41:50.696Z,100428.61
2022-08-03T01:44:30.182Z,100428.36
2022-08-03T01:47:07.897Z,100429.66
2022-08-03T01:49:46.131Z,100424.62
2022-08-03T01:52:22.952Z,100424.77
2022-08-03T01:54:57.758Z,100423.13
2022-08-03T01:57:33.105Z,100422.73
2022-08-03T02:00:28.387Z,100419.42
2022-08-03T02:03:04.492Z,100415.29
2022-08-03T02:05:41.459Z,100414.69
2022-08-03T02:08:20.081Z,100414.74
2022-08-03T02:10:54.414Z,100413.16
2022-08-03T02:13:30.759Z,100414.61
2022-08-03T02:16:07.730Z,100407.67
2022-08-03T02:18:42.604Z,100413.80
2022-08-03T02:21:55.785Z,100409.98
2022-08-03T02:24:11.552Z,100410.56
2022-08-03T02:26:46.534Z,100413.57
2022-08-03T02:29:38.822Z,100412.81
2022-08-03T02:32:19.789Z,100410.40
2022-08-03T02:34:56.547Z,100410.19
2022-08-03T02:37:33.825Z,100409.73
2022-08-03T02:40:10.243Z,100410.21
2022-08-03T02:42:46.161Z,100405.27
2022-08-03T02:45:22.663Z,100408.83
2022-08-03T02:48:02.444Z,100408.02
2022-08-03T02:50:37.190Z,100413.09
2022-08-03T02:53:12.889Z,100411.34
2022-08-03T02:55:48.816Z,100413.61
2022-08-03T02:58:25.931Z,100414.74
2022-08-03T03:01:00.609Z,100416.25
2022-08-03T03:03:44.639Z,100419.08
2022-08-03T03:06:19.500Z,100420.33
2022-08-03T03:08:59.451Z,100422.39
2022-08-03T03:11:32.365Z,100422.05
2022-08-03T03:14:04.374Z,100425.65
2022-08-03T03:16:41.685Z,100426.84
2022-08-03T03:19:15.811Z,100429.04
2022-08-03T03:21:47.981Z,100428.45
2022-08-03T03:24:19.790Z,100429.77
2022-08-03T03:26:51.865Z,100428.70
2022-08-03T03:29:23.616Z,100426.29
2022-08-03T03:31:55.787Z,100426.45
2022-08-03T03:34:32.322Z,100427.16
2022-08-03T03:37:09.265Z,100424.73
2022-08-03T03:39:44.955Z,100427.86
2022-08-03T03:42:16.733Z,100429.54
2022-08-03T03:44:48.825Z,100431.40
2022-08-03T03:47:32.703Z,100430.95
2022-08-03T03:50:07.134Z,100431.02
2022-08-03T03:52:39.433Z,100433.92
2022-08-03T03:55:11.886Z,100433.20
2022-08-03T03:57:43.437Z,100436.11
2022-08-03T04:00:18.222Z,100438.31
2022-08-03T04:02:50.264Z,100440.89
2022-08-03T04:05:42.996Z,100443.52
2022-08-03T04:08:36.388Z,100454.48
2022-08-03T04:11:13.188Z,100453.23
2022-08-03T04:13:51.252Z,100456.46
2022-08-03T04:16:26.785Z,100455.66
2022-08-03T04:19:03.315Z,100457.20
2022-08-03T04:21:39.725Z,100458.17
2022-08-03T04:24:15.228Z,100459.17
2022-08-03T04:26:52.921Z,100463.45
2022-08-03T04:29:27.591Z,100460.71
2022-08-03T04:32:01.631Z,100462.34
2022-08-03T04:34:35.234Z,100471.15
2022-08-03T04:37:12.579Z,100474.05
2022-08-03T04:39:46.177Z,100474.78
2022-08-03T04:42:19.327Z,100479.51
2022-08-03T04:44:52.283Z,100482.75
2022-08-03T04:47:24.593Z,100480.54
2022-08-03T04:49:56.959Z,100479.25
2022-08-03T04:52:29.126Z,100480.45
2022-08-03T04:55:00.770Z,100477.39
2022-08-03T04:57:32.167Z,100478.25
2022-08-03T05:00:03.870Z,100478.22
2022-08-03T05:02:35.511Z,100481.94
2022-08-03T05:05:07.611Z,100482.29
2022-08-03T05:07:39.447Z,100480.25
2022-08-03T05:10:15.759Z,100481.84
2022-08-03T05:12:49.295Z,100479.20
2022-08-03T05:15:20.973Z,100479.69
2022-08-03T05:17:52.847Z,100481.51
2022-08-03T05:20:24.394Z,100483.84
2022-08-03T05:22:55.830Z,100483.64
2022-08-03T05:25:27.655Z,100488.20
2022-08-03T05:27:59.079Z,100485.67
2022-08-03T05:30:33.828Z,100484.02
2022-08-03T05:33:06.859Z,100483.05
2022-08-03T05:36:00.819Z,100485.00
2022-08-03T05:38:34.721Z,100489.69
2022-08-03T05:41:22.294Z,100487.73
2022-08-03T05:43:56.856Z,100489.67
2022-08-03T05:46:28.577Z,100494.02
2022-08-03T05:49:00.573Z,100494.02
2022-08-03T05:51:32.007Z,100492.95
2022-08-03T05:54:04.142Z,100489.38
2022-08-03T05:56:35.628Z,100488.39
2022-08-03T05:59:28.687Z,100495.59
2022-08-03T06:01:58.759Z,100498.06
2022-08-03T06:04:30.530Z,100502.31
2022-08-03T06:07:02.138Z,100504.34
2022-08-03T06:10:34.171Z,100509.11
2022-08-03T06:12:25.662Z,100508.15
2022-08-03T06:14:57.123Z,100506.95
2022-08-03T06:17:28.787Z,100506.06
2022-08-03T06:20:10.811Z,100510.51
2022-08-03T06:22:50.801Z,100511.39
2022-08-03T06:25:23.971Z,100512.74
2022-08-03T06:27:55.688Z,100517.49
2022-08-03T06:30:27.514Z,100515.34
2022-08-03T06:32:59.334Z,100514.36
2022-08-03T06:35:30.958Z,100515.94
2022-08-03T06:38:03.097Z,100517.55
2022-08-03T06:40:40.301Z,100512.14
2022-08-03T06:43:12.845Z,100512.68
2022-08-03T06:45:48.171Z,100512.66
2022-08-03T06:48:20.090Z,100513.36
2022-08-03T06:50:51.616Z,100513.87
2022-08-03T06:53:23.358Z,100512.13
2022-08-03T06:55:55.485Z,100513.08
2022-08-03T06:58:27.268Z,100515.53
2022-08-03T07:00:59.426Z,100510.94
2022-08-03T07:03:30.912Z,100514.04
2022-08-03T07:06:02.431Z,100512.80
2022-08-03T07:08:34.991Z,100515.45
2022-08-03T07:11:06.521Z,100515.30
2022-08-03T07:13:38.491Z,100516.70
2022-08-03T07:16:11.263Z,100522.08
2022-08-03T07:18:43.439Z,100520.77
2022-08-03T07:21:17.021Z,100519.14
2022-08-03T07:23:48.563Z,100521.98
2022-08-03T07:26:20.135Z,100520.42
2022-08-03T07:28:52.119Z,100521.67
2022-08-03T07:31:23.756Z,100520.85
2022-08-03T07:33:55.342Z,100519.27
2022-08-03T07:36:27.326Z,100519.96
2022-08-03T07:38:59.707Z,100519.73
2022-08-03T07:41:32.228Z,100514.40
2022-08-03T07:44:03.727Z,100515.64
2022-08-03T07:46:35.292Z,100514.30
2022-08-03T07:49:07.223Z,100516.48
2022-08-03T07:51:39.101Z,100517.72
2022-08-03T07:54:11.651Z,100517.98
2022-08-03T07:56:44.136Z,100517.97
2022-08-03T07:59:15.607Z,100516.70
2022-08-03T08:01:47.802Z,100517.54
2022-08-03T08:04:19.277Z,100514.55
2022-08-03T08:06:50.761Z,100518.97
2022-08-03T08:09:22.310Z,100517.33
2022-08-03T08:11:54.765Z,100520.41
2022-08-03T08:14:26.591Z,100521.55
2022-08-03T08:16:58.352Z,100521.27
2022-08-03T08:19:30.168Z,100522.91
2022-08-03T08:22:05.038Z,100523.40
2022-08-03T08:24:37.376Z,100532.23
2022-08-03T08:27:12.298Z,100534.31
2022-08-03T08:29:47.941Z,100534.73
2022-08-03T08:32:27.062Z,100535.77
2022-08-03T08:34:58.695Z,100532.59
2022-08-03T08:37:30.290Z,100534.91
2022-08-03T08:40:02.020Z,100534.45
2022-08-03T08:42:34.570Z,100537.84
2022-08-03T08:45:09.200Z,100531.14
2022-08-03T08:47:51.034Z,100527.86
2022-08-03T08:50:27.890Z,100527.04
2022-08-03T08:53:02.061Z,100527.73
2022-08-03T08:55:58.624Z,100529.49
2022-08-03T08:58:30.421Z,100524.46
2022-08-03T09:01:00.431Z,100525.85
2022-08-03T09:03:34.484Z,100525.48
2022-08-03T09:06:07.084Z,100525.67
2022-08-03T09:08:38.551Z,100526.38
2022-08-03T09:11:12.049Z,100524.63
2022-08-03T09:13:44.511Z,100526.37
2022-08-03T09:16:21.323Z,100526.81
2022-08-03T09:18:54.768Z,100524.19
2022-08-03T09:21:32.524Z,100525.33
2022-08-03T09:24:13.111Z,100524.63
2022-08-03T09:26:54.541Z,100524.62
2022-08-03T09:29:26.823Z,100520.98
2022-08-03T09:32:04.376Z,100515.04
2022-08-03T09:34:36.113Z,100519.38
2022-08-03T09:37:17.643Z,100512.83
2022-08-03T09:39:50.036Z,100505.13
2022-08-03T09:42:23.776Z,100512.98
2022-08-03T09:44:55.742Z,100506.77
2022-08-03T09:47:34.051Z,100504.50
2022-08-03T09:50:07.399Z,100500.11
2022-08-03T09:52:51.881Z,100499.71
2022-08-03T09:56:34.219Z,100505.73
2022-08-03T09:58:16.958Z,100501.77
2022-08-03T10:00:59.459Z,100500.59
2022-08-03T10:03:32.792Z,100500.57
2022-08-03T10:06:19.725Z,100496.77
2022-08-03T10:09:06.035Z,100495.04
2022-08-03T10:11:41.850Z,100488.40
2022-08-03T10:14:19.697Z,100489.44
2022-08-03T10:16:51.816Z,100487.25
2022-08-03T10:19:23.420Z,100492.09
2022-08-03T10:21:59.596Z,100491.23
2022-08-03T10:24:36.033Z,100494.73
2022-08-03T10:27:08.898Z,100493.89
2022-08-03T10:29:47.869Z,100493.63
2022-08-03T10:32:23.651Z,100495.48
2022-08-03T10:34:59.889Z,100494.71
2022-08-03T10:37:34.333Z,100492.77
2022-08-03T10:40:08.601Z,100491.30
2022-08-03T10:42:40.614Z,100486.18
2022-08-03T10:45:20.161Z,100490.77
2022-08-03T10:47:53.070Z,100489.72
2022-08-03T10:50:27.441Z,100491.48
2022-08-03T10:53:04.041Z,100488.52
2022-08-03T10:55:55.405Z,100484.22
2022-08-03T10:58:57.521Z,100486.48
2022-08-03T11:02:00.173Z,100489.34
2022-08-03T11:04:33.083Z,100478.20
2022-08-03T11:07:25.622Z,100479.71
2022-08-03T11:09:58.631Z,100477.16
2022-08-03T11:12:32.513Z,100467.36
2022-08-03T11:15:08.966Z,100470.11
2022-08-03T11:17:46.204Z,100473.16
2022-08-03T11:20:47.753Z,100469.95
2022-08-03T11:24:03.469Z,100468.02
2022-08-03T11:26:19.857Z,100466.71
2022-08-03T11:28:51.888Z,100471.73
2022-08-03T11:31:51.645Z,100467.41
2022-08-03T11:34:24.951Z,100460.83
2022-08-03T11:37:32.870Z,100456.27
2022-08-03T11:40:05.619Z,100457.70
2022-08-03T11:42:47.618Z,100456.25
2022-08-03T11:45:20.162Z,100455.13
2022-08-03T11:47:54.666Z,100453.17
2022-08-03T11:50:27.048Z,100458.48
2022-08-03T11:52:58.832Z,100452.98
2022-08-03T11:55:32.533Z,100456.32
2022-08-03T11:59:00.814Z,100451.33
2022-08-03T12:01:04.928Z,100451.66
2022-08-03T12:03:38.296Z,100450.61
2022-08-03T12:06:13.506Z,100448.89
2022-08-03T12:08:46.225Z,100445.42
2022-08-03T12:11:19.246Z,100441.23
2022-08-03T12:14:36.756Z,100442.20
2022-08-03T12:16:48.620Z,100440.73
2022-08-03T12:19:21.327Z,100435.81
2022-08-03T12:21:57.109Z,100439.67
2022-08-03T12:24:41.451Z,100434.75
2022-08-03T12:27:13.685Z,100431.63
2022-08-03T12:29:58.774Z,100434.04
2022-08-03T12:32:31.748Z,100436.59
2022-08-03T12:35:06.260Z,100431.58
2022-08-03T12:37:38.411Z,100429.95
2022-08-03T12:40:17.764Z,100432.88
2022-08-03T12:42:51.857Z,100425.75
2022-08-03T12:45:25.302Z,100423.60
2022-08-03T12:47:59.785Z,100423.92
2022-08-03T12:50:33.839Z,100422.84
2022-08-03T12:53:07.960Z,100416.41
2022-08-03T12:55:57.285Z,100407.74
2022-08-03T12:58:37.023Z,100409.13
2022-08-03T13:01:10.810Z,100404.96
2022-08-03T13:03:50.394Z,100400.59
2022-08-03T13:06:25.950Z,100400.61
2022-08-03T13:09:08.259Z,100399.95
2022-08-03T13:11:55.602Z,100401.93
2022-08-03T13:14:31.879Z,100399.25
2022-08-03T13:17:04.207Z,100395.28
2022-08-03T13:19:36.886Z,100395.46
2022-08-03T13:22:16.381Z,100392.61
2022-08-03T13:24:49.900Z,100396.05
2022-08-03T13:28:01.464Z,100392.62
2022-08-03T13:30:14.505Z,100396.27
2022-08-03T13:32:56.683Z,100389.61
2022-08-03T13:35:31.173Z,100387.70
2022-08-03T13:38:02.815Z,100387.79
2022-08-03T13:40:41.661Z,100387.25
2022-08-03T13:43:13.903Z,100381.36
2022-08-03T13:45:51.265Z,100383.15
2022-08-03T13:48:37.657Z,100376.94
2022-08-03T13:51:11.664Z,100380.86
2022-08-03T13:53:54.389Z,100377.95
2022-08-03T13:56:26.246Z,100377.33
2022-08-03T13:58:58.244Z,100374.56
2022-08-03T14:01:53.612Z,100373.04
2022-08-03T14:04:22.536Z,100377.47
2022-08-03T14:06:54.255Z,100373.66
2022-08-03T14:09:25.931Z,100370.02
2022-08-03T14:12:07.603Z,100369.14
2022-08-03T14:14:40.283Z,100368.79
2022-08-03T14:17:12.138Z,100367.98
2022-08-03T14:19:52.673Z,100361.85
2022-08-03T14:22:25.355Z,100365.65
2022-08-03T14:24:56.902Z,100360.52
2022-08-03T14:27:29.227Z,100360.80
2022-08-03T14:30:01.835Z,100356.89
2022-08-03T14:32:33.952Z,100358.41
2022-08-03T14:35:05.782Z,100357.78
2022-08-03T14:37:37.656Z,100356.77
2022-08-03T14:40:11.859Z,100348.27
2022-08-03T14:42:43.329Z,100351.36
2022-08-03T14:45:19.825Z,100353.20
2022-08-03T14:50:30.562Z,100348.34
2022-08-03T14:50:50.292Z,100350.33
2022-08-03T14:53:25.765Z,100353.10
2022-08-03T14:55:57.649Z,100351.59
2022-08-03T14:58:29.272Z,100350.96
2022-08-03T15:01:00.865Z,100352.78
2022-08-03T15:03:32.391Z,100351.92
2022-08-03T15:06:03.961Z,100347.29
2022-08-03T15:08:35.628Z,100343.39
2022-08-03T15:11:07.317Z,100342.02
2022-08-03T15:13:39.318Z,100338.40
2022-08-03T15:16:11.262Z,100340.75
2022-08-03T15:18:42.764Z,100334.73
2022-08-03T15:21:45.870Z,100330.60
2022-08-03T15:24:07.471Z,100330.17
2022-08-03T15:26:41.518Z,100329.02
2022-08-03T15:30:07.283Z,100327.53
2022-08-03T15:32:09.403Z,100325.11
2022-08-03T15:34:41.911Z,100327.51
2022-08-03T15:37:22.510Z,100324.60
2022-08-03T15:39:59.659Z,100324.58
2022-08-03T15:42:34.685Z,100322.22
2022-08-03T15:45:07.713Z,100323.23
2022-08-03T15:47:39.864Z,100321.00
2022-08-03T15:50:12.829Z,100318.12
2022-08-03T15:52:44.887Z,100318.27
2022-08-03T15:55:18.262Z,100314.41
2022-08-03T15:59:09.578Z,100310.20
2022-08-03T16:00:44.778Z,100310.34
2022-08-03T16:03:16.329Z,100307.36
2022-08-03T16:05:48.388Z,100307.86
2022-08-03T16:08:20.015Z,100305.91
2022-08-03T16:10:52.235Z,100306.70
2022-08-03T16:14:14.090Z,100306.56
2022-08-03T16:16:17.023Z,100304.38
2022-08-03T16:18:48.745Z,100303.69
2022-08-03T16:21:21.750Z,100299.35
2022-08-03T16:23:55.794Z,100299.98
2022-08-03T16:26:29.519Z,100294.62
2022-08-03T16:29:03.841Z,100298.10
2022-08-03T16:31:55.055Z,100294.20
2022-08-03T16:34:26.912Z,100292.17
2022-08-03T16:36:58.781Z,100288.31
2022-08-03T16:39:30.823Z,100289.83
2022-08-03T16:42:03.628Z,100290.84
2022-08-03T16:44:36.991Z,100289.51
2022-08-03T16:47:09.011Z,100291.08
2022-08-03T16:49:56.432Z,100289.95
2022-08-03T16:52:30.209Z,100290.27
2022-08-03T16:55:02.169Z,100294.67
2022-08-03T16:57:58.981Z,100294.39
2022-08-03T17:00:32.991Z,100295.31
2022-08-03T17:03:12.384Z,100297.63
2022-08-03T17:05:52.305Z,100301.39
2022-08-03T17:08:26.692Z,100301.67
2022-08-03T17:10:59.185Z,100306.45
2022-08-03T17:13:39.347Z,100306.91
2022-08-03T17:16:15.348Z,100304.95
2022-08-03T17:18:53.637Z,100308.45
2022-08-03T17:21:30.995Z,100308.85
2022-08-03T17:24:12.328Z,100314.95
2022-08-03T17:26:49.907Z,100315.92
2022-08-03T17:29:25.296Z,100320.63
2022-08-03T17:32:06.569Z,100319.94
2022-08-03T17:34:44.658Z,100318.29
2022-08-03T17:37:49.914Z,100322.85
2022-08-03T17:40:12.114Z,100328.36
2022-08-03T17:42:50.983Z,100331.38
2022-08-03T17:45:23.394Z,100334.85
2022-08-03T17:48:18.532Z,100335.01
2022-08-03T17:50:57.071Z,100337.61
2022-08-03T17:53:34.021Z,100340.95
2022-08-03T17:56:40.791Z,100345.00
2022-08-03T17:59:15.540Z,100344.94
2022-08-03T18:02:26.465Z,100343.73
2022-08-03T18:05:16.730Z,100347.09
2022-08-03T18:08:01.572Z,100346.03
2022-08-03T18:10:49.893Z,100346.03
2022-08-03T18:13:25.781Z,100349.02
2022-08-03T18:16:04.979Z,100346.30
2022-08-03T18:18:41.019Z,100350.17
2022-08-03T18:21:22.762Z,100350.54
2022-08-03T18:23:56.565Z,100357.00
2022-08-03T18:26:31.993Z,100360.16
2022-08-03T18:29:05.282Z,100364.02
2022-08-03T18:32:03.107Z,100369.08
2022-08-03T18:34:53.146Z,100372.94
2022-08-03T18:37:27.263Z,100379.40
2022-08-03T18:40:01.843Z,100382.27
2022-08-03T18:42:34.259Z,100390.89
2022-08-03T18:45:14.795Z,100391.96
2022-08-03T18:48:11.897Z,100395.38
2022-08-03T18:50:49.853Z,100399.65
2022-08-03T18:54:02.183Z,100398.95
2022-08-03T18:56:28.752Z,100402.51
2022-08-03T18:59:06.356Z,100402.30
2022-08-03T19:01:59.622Z,100401.63
2022-08-03T19:04:37.837Z,100404.89
2022-08-03T19:07:14.237Z,100402.71
2022-08-03T19:09:52.787Z,100404.02
2022-08-03T19:12:31.109Z,100406.02
2022-08-03T19:15:13.135Z,100405.95
2022-08-03T19:17:50.318Z,100404.30
2022-08-03T19:20:32.462Z,100408.09
2022-08-03T19:23:04.495Z,100408.79
2022-08-03T19:25:41.459Z,100408.41
2022-08-03T19:28:13.956Z,100407.73
2022-08-03T19:30:53.602Z,100409.66
2022-08-03T19:33:29.796Z,100408.71
2022-08-03T19:36:01.797Z,100411.36
2022-08-03T19:38:35.835Z,100413.14
2022-08-03T19:41:14.456Z,100409.75
2022-08-03T19:43:57.781Z,100411.88
2022-08-03T19:46:32.264Z,100411.98
2022-08-03T19:49:14.489Z,100409.51
2022-08-03T19:52:01.659Z,100408.45
2022-08-03T19:54:52.970Z,100407.45
2022-08-03T19:57:28.057Z,100411.37
2022-08-03T20:00:03.501Z,100412.76
2022-08-03T20:02:43.079Z,100415.03
2022-08-03T20:05:15.829Z,100416.02
2022-08-03T20:07:48.708Z,100416.85
2022-08-03T20:10:21.844Z,100419.05
2022-08-03T20:12:54.035Z,100418.39
2022-08-03T20:15:31.691Z,100422.31
2022-08-03T20:18:04.022Z,100422.23
2022-08-03T20:20:43.290Z,100424.77
2022-08-03T20:23:20.140Z,100422.36
2022-08-03T20:25:59.461Z,100422.13
2022-08-03T20:28:50.069Z,100419.83
2022-08-03T20:31:32.632Z,100419.41
2022-08-03T20:34:09.196Z,100415.08
2022-08-03T20:36:41.807Z,100419.58
2022-08-03T20:39:14.349Z,100420.44
2022-08-03T20:41:46.030Z,100418.71
2022-08-03T20:44:17.609Z,100420.26
2022-08-03T20:46:53.178Z,100419.91
2022-08-03T20:49:46.244Z,100424.49
2022-08-03T20:52:18.431Z,100427.70
2022-08-03T20:54:51.136Z,100423.61
2022-08-03T20:57:23.623Z,100427.48
2022-08-03T20:59:57.233Z,100431.38
2022-08-03T21:02:31.054Z,100428.34
2022-08-03T21:05:08.466Z,100429.02
2022-08-03T21:08:05.409Z,100430.98
2022-08-03T21:10:42.075Z,100426.02
2022-08-03T21:16:02.644Z,100432.05
2022-08-03T21:18:48.053Z,100430.40
2022-08-03T21:21:22.435Z,100428.09
2022-08-03T21:23:56.508Z,100427.98
2022-08-03T21:26:29.153Z,100432.81
2022-08-03T21:29:01.177Z,100430.58
2022-08-03T21:31:32.744Z,100426.27
2022-08-03T21:34:06.408Z,100433.35
2022-08-03T21:36:39.381Z,100432.77
2022-08-03T21:39:13.684Z,100432.33
2022-08-03T21:41:43.424Z,100427.71
2022-08-03T21:44:17.861Z,100424.97
2022-08-03T21:46:57.151Z,100428.98
2022-08-03T21:50:02.717Z,100429.27
2022-08-03T21:52:25.432Z,100426.05
2022-08-03T21:55:01.948Z,100429.67
2022-08-03T21:57:37.702Z,100426.46
2022-08-03T22:00:15.463Z,100429.59
2022-08-03T22:02:54.517Z,100430.92
2022-08-03T22:05:44.037Z,100430.09
2022-08-03T22:08:16.148Z,100433.55
2022-08-03T22:10:49.375Z,100430.20
2022-08-03T22:13:44.296Z,100434.69
2022-08-03T22:16:15.172Z,100430.27
2022-08-03T22:18:48.232Z,100428.98
2022-08-03T22:21:27.953Z,100432.45
2022-08-03T22:24:08.839Z,100428.52
2022-08-03T22:27:04.410Z,100434.05
2022-08-03T22:29:38.548Z,100435.66
2022-08-03T22:32:11.032Z,100436.70
2022-08-03T22:34:47.219Z,100430.02
2022-08-03T22:37:21.020Z,100428.95
2022-08-03T22:39:54.432Z,100428.05
2022-08-03T22:42:28.174Z,100426.62
2022-08-03T22:44:59.533Z,100426.08
2022-08-03T22:47:33.860Z,100426.45
2022-08-03T22:50:33.063Z,100426.17
2022-08-03T22:52:57.504Z,100425.18
2022-08-03T22:55:30.852Z,100423.48
2022-08-03T22:58:02.349Z,100423.81
2022-08-03T23:00:33.958Z,100424.16
2022-08-03T23:03:07.886Z,100417.55
2022-08-03T23:06:00.362Z,100415.89
2022-08-03T23:08:37.459Z,100417.00
2022-08-03T23:11:11.565Z,100417.58
2022-08-03T23:13:43.747Z,100416.98
2022-08-03T23:16:17.009Z,100418.09
2022-08-03T23:19:16.788Z,100418.57
2022-08-03T23:22:02.500Z,100420.00
2022-08-03T23:24:37.370Z,100419.76
2022-08-03T23:27:10.024Z,100419.01
2022-08-03T23:29:44.139Z,100415.19
2022-08-03T23:32:16.694Z,100419.24
2022-08-03T23:35:06.861Z,100414.61
2022-08-03T23:38:10.762Z,100420.84
2022-08-03T23:40:32.737Z,100420.37
2022-08-03T23:43:05.115Z,100414.34
2022-08-03T23:45:38.190Z,100414.80
2022-08-03T23:48:10.324Z,100414.89
2022-08-03T23:50:47.680Z,100410.79
2022-08-03T23:53:23.594Z,100407.33
2022-08-03T23:56:14.109Z,100408.80
2022-08-03T23:58:56.169Z,100410.53
